sensor_id;sensor_type;location;lat;lon;timestamp;pressure;altitude;pressure_sealevel;temperature;humidity
47054;BME280;32811;52.382;5.270;2023-01-20T00:01:33;101078.75;;;-0.58;100.00
47054;BME280;32811;52.382;5.270;2023-01-20T00:04:00;101079.63;;;-0.58;100.00
47054;BME280;32811;52.382;5.270;2023-01-20T00:06:27;101062.41;;;-0.64;100.00
47054;BME280;32811;52.382;5.270;2023-01-20T00:08:57;101082.16;;;-0.58;100.00
47054;BME280;32811;52.382;5.270;2023-01-20T00:11:24;101086.34;;;-0.58;100.00
47054;BME280;32811;52.382;5.270;2023-01-20T00:13:55;101086.53;;;-0.55;100.00
47054;BME280;32811;52.382;5.270;2023-01-20T00:16:23;101082.41;;;-0.53;100.00
47054;BME280;32811;52.382;5.270;2023-01-20T00:18:51;101072.31;;;-0.68;100.00
47054;BME280;32811;52.382;5.270;2023-01-20T00:21:19;101074.75;;;-0.70;100.00
47054;BME280;32811;52.382;5.270;2023-01-20T00:23:47;101082.22;;;-0.56;100.00
47054;BME280;32811;52.382;5.270;2023-01-20T00:26:16;101069.94;;;-0.65;100.00
47054;BME280;32811;52.382;5.270;2023-01-20T00:28:45;101073.53;;;-0.61;100.00
47054;BME280;32811;52.382;5.270;2023-01-20T00:31:19;101078.97;;;-0.54;100.00
47054;BME280;32811;52.382;5.270;2023-01-20T00:33:47;101079.69;;;-0.56;100.00
47054;BME280;32811;52.382;5.270;2023-01-20T00:36:15;101083.75;;;-0.60;100.00
47054;BME280;32811;52.382;5.270;2023-01-20T00:38:42;101049.88;;;-0.77;100.00
47054;BME280;32811;52.382;5.270;2023-01-20T00:41:10;101082.00;;;-0.61;100.00
47054;BME280;32811;52.382;5.270;2023-01-20T00:43:37;101083.19;;;-0.54;100.00
47054;BME280;32811;52.382;5.270;2023-01-20T00:46:05;101089.06;;;-0.55;100.00
47054;BME280;32811;52.382;5.270;2023-01-20T00:48:32;101081.28;;;-0.58;100.00
47054;BME280;32811;52.382;5.270;2023-01-20T00:50:59;101097.63;;;-0.53;100.00
47054;BME280;32811;52.382;5.270;2023-01-20T00:53:27;101100.06;;;-0.55;100.00
47054;BME280;32811;52.382;5.270;2023-01-20T00:55:54;101095.53;;;-0.60;100.00
47054;BME280;32811;52.382;5.270;2023-01-20T00:58:22;101096.25;;;-0.63;100.00
47054;BME280;32811;52.382;5.270;2023-01-20T01:00:50;101107.69;;;-0.55;100.00
47054;BME280;32811;52.382;5.270;2023-01-20T01:03:18;101104.91;;;-0.59;100.00
47054;BME280;32811;52.382;5.270;2023-01-20T01:05:46;101105.03;;;-0.56;100.00
47054;BME280;32811;52.382;5.270;2023-01-20T01:08:13;101117.66;;;-0.58;100.00
47054;BME280;32811;52.382;5.270;2023-01-20T01:10:40;101099.34;;;-0.69;100.00
47054;BME280;32811;52.382;5.270;2023-01-20T01:13:08;101114.78;;;-0.64;100.00
47054;BME280;32811;52.382;5.270;2023-01-20T01:15:35;101110.44;;;-0.67;100.00
47054;BME280;32811;52.382;5.270;2023-01-20T01:18:02;101102.63;;;-0.86;100.00
47054;BME280;32811;52.382;5.270;2023-01-20T01:20:31;101126.78;;;-0.76;100.00
47054;BME280;32811;52.382;5.270;2023-01-20T01:22:58;101121.47;;;-0.81;100.00
47054;BME280;32811;52.382;5.270;2023-01-20T01:25:26;101121.91;;;-0.88;100.00
47054;BME280;32811;52.382;5.270;2023-01-20T01:27:53;101129.94;;;-0.80;100.00
47054;BME280;32811;52.382;5.270;2023-01-20T01:30:19;101133.13;;;-0.85;100.00
47054;BME280;32811;52.382;5.270;2023-01-20T01:32:46;101141.84;;;-0.79;100.00
47054;BME280;32811;52.382;5.270;2023-01-20T01:35:14;101139.38;;;-0.78;100.00
47054;BME280;32811;52.382;5.270;2023-01-20T01:37:41;101139.56;;;-0.75;100.00
47054;BME280;32811;52.382;5.270;2023-01-20T01:40:09;101153.28;;;-0.71;100.00
47054;BME280;32811;52.382;5.270;2023-01-20T01:42:36;101150.38;;;-0.63;100.00
47054;BME280;32811;52.382;5.270;2023-01-20T01:47:41;101147.69;;;-0.49;100.00
47054;BME280;32811;52.382;5.270;2023-01-20T01:50:14;101135.16;;;-0.63;100.00
47054;BME280;32811;52.382;5.270;2023-01-20T01:52:45;101149.97;;;-0.54;100.00
47054;BME280;32811;52.382;5.270;2023-01-20T01:55:13;101126.59;;;-0.65;100.00
47054;BME280;32811;52.382;5.270;2023-01-20T01:57:41;101150.69;;;-0.56;100.00
47054;BME280;32811;52.382;5.270;2023-01-20T02:00:09;101151.53;;;-0.56;100.00
47054;BME280;32811;52.382;5.270;2023-01-20T02:02:36;101147.84;;;-0.63;100.00
47054;BME280;32811;52.382;5.270;2023-01-20T02:05:04;101104.19;;;-0.88;100.00
47054;BME280;32811;52.382;5.270;2023-01-20T02:07:31;101098.88;;;-0.93;100.00
47054;BME280;32811;52.382;5.270;2023-01-20T02:09:59;101151.94;;;-0.65;100.00
47054;BME280;32811;52.382;5.270;2023-01-20T02:12:27;101155.97;;;-0.68;100.00
47054;BME280;32811;52.382;5.270;2023-01-20T02:14:57;101144.00;;;-0.71;100.00
47054;BME280;32811;52.382;5.270;2023-01-20T02:20:21;101147.25;;;-0.73;100.00
47054;BME280;32811;52.382;5.270;2023-01-20T02:22:57;101142.78;;;-0.77;100.00
47054;BME280;32811;52.382;5.270;2023-01-20T02:34:15;101150.03;;;-0.69;100.00
47054;BME280;32811;52.382;5.270;2023-01-20T02:37:08;101147.66;;;-0.66;100.00
47054;BME280;32811;52.382;5.270;2023-01-20T02:39:53;101151.28;;;-0.60;100.00
47054;BME280;32811;52.382;5.270;2023-01-20T02:42:47;101149.56;;;-0.61;100.00
47054;BME280;32811;52.382;5.270;2023-01-20T02:45:26;101158.13;;;-0.59;100.00
47054;BME280;32811;52.382;5.270;2023-01-20T02:48:25;101162.59;;;-0.55;100.00
47054;BME280;32811;52.382;5.270;2023-01-20T02:53:42;101152.81;;;-0.64;100.00
47054;BME280;32811;52.382;5.270;2023-01-20T02:56:11;101127.69;;;-0.76;100.00
47054;BME280;32811;52.382;5.270;2023-01-20T02:58:46;101154.03;;;-0.57;100.00
47054;BME280;32811;52.382;5.270;2023-01-20T03:04:06;101150.03;;;-0.69;100.00
47054;BME280;32811;52.382;5.270;2023-01-20T03:06:38;101154.03;;;-0.72;100.00
47054;BME280;32811;52.382;5.270;2023-01-20T03:09:09;101163.28;;;-0.58;100.00
47054;BME280;32811;52.382;5.270;2023-01-20T03:11:43;101158.03;;;-0.61;100.00
47054;BME280;32811;52.382;5.270;2023-01-20T03:14:12;101159.00;;;-0.59;100.00
47054;BME280;32811;52.382;5.270;2023-01-20T03:16:40;101150.38;;;-0.63;100.00
47054;BME280;32811;52.382;5.270;2023-01-20T03:19:08;101156.38;;;-0.60;100.00
47054;BME280;32811;52.382;5.270;2023-01-20T03:21:36;101159.88;;;-0.58;100.00
47054;BME280;32811;52.382;5.270;2023-01-20T03:24:03;101123.03;;;-0.83;100.00
47054;BME280;32811;52.382;5.270;2023-01-20T03:26:31;101164.94;;;-0.58;100.00
47054;BME280;32811;52.382;5.270;2023-01-20T03:29:02;101163.91;;;-0.62;100.00
47054;BME280;32811;52.382;5.270;2023-01-20T03:31:46;101160.22;;;-0.67;100.00
47054;BME280;32811;52.382;5.270;2023-01-20T03:34:17;101173.97;;;-0.64;100.00
47054;BME280;32811;52.382;5.270;2023-01-20T03:36:46;101161.66;;;-0.72;100.00
47054;BME280;32811;52.382;5.270;2023-01-20T03:39:14;101167.69;;;-0.70;100.00
47054;BME280;32811;52.382;5.270;2023-01-20T03:42:09;101179.84;;;-0.65;100.00
47054;BME280;32811;52.382;5.270;2023-01-20T03:50:37;101175.03;;;-0.75;100.00
47054;BME280;32811;52.382;5.270;2023-01-20T03:53:38;101179.94;;;-0.78;100.00
47054;BME280;32811;52.382;5.270;2023-01-20T03:56:35;101188.16;;;-0.82;100.00
47054;BME280;32811;52.382;5.270;2023-01-20T03:59:03;101182.13;;;-0.84;100.00
47054;BME280;32811;52.382;5.270;2023-01-20T04:01:35;101190.59;;;-0.84;100.00
47054;BME280;32811;52.382;5.270;2023-01-20T04:04:11;101186.13;;;-0.88;100.00
47054;BME280;32811;52.382;5.270;2023-01-20T04:06:41;101198.28;;;-0.82;100.00
47054;BME280;32811;52.382;5.270;2023-01-20T04:09:30;101183.69;;;-0.86;100.00
47054;BME280;32811;52.382;5.270;2023-01-20T04:11:58;101187.34;;;-0.81;100.00
47054;BME280;32811;52.382;5.270;2023-01-20T04:14:25;101174.44;;;-0.86;100.00
47054;BME280;32811;52.382;5.270;2023-01-20T04:16:55;101170.06;;;-0.88;100.00
47054;BME280;32811;52.382;5.270;2023-01-20T04:19:24;101181.31;;;-0.83;100.00
47054;BME280;32811;52.382;5.270;2023-01-20T04:21:59;101178.78;;;-0.83;100.00
47054;BME280;32811;52.382;5.270;2023-01-20T04:24:36;101164.91;;;-0.90;100.00
47054;BME280;32811;52.382;5.270;2023-01-20T04:27:05;101137.06;;;-1.05;100.00
47054;BME280;32811;52.382;5.270;2023-01-20T04:29:32;101177.06;;;-0.84;100.00
47054;BME280;32811;52.382;5.270;2023-01-20T04:32:00;101182.13;;;-0.84;100.00
47054;BME280;32811;52.382;5.270;2023-01-20T04:34:27;101183.44;;;-0.91;100.00
47054;BME280;32811;52.382;5.270;2023-01-20T04:36:54;101179.78;;;-0.96;100.00
47054;BME280;32811;52.382;5.270;2023-01-20T04:39:21;101180.66;;;-0.95;100.00
47054;BME280;32811;52.382;5.270;2023-01-20T04:41:49;101185.88;;;-0.92;100.00
47054;BME280;32811;52.382;5.270;2023-01-20T04:44:16;101192.72;;;-0.91;100.00
47054;BME280;32811;52.382;5.270;2023-01-20T04:46:44;101182.22;;;-0.97;100.00
47054;BME280;32811;52.382;5.270;2023-01-20T04:49:13;101169.91;;;-1.06;100.00
47054;BME280;32811;52.382;5.270;2023-01-20T04:51:40;101184.84;;;-0.96;100.00
47054;BME280;32811;52.382;5.270;2023-01-20T04:54:07;101193.47;;;-0.92;100.00
47054;BME280;32811;52.382;5.270;2023-01-20T04:56:34;101185.81;;;-0.94;100.00
47054;BME280;32811;52.382;5.270;2023-01-20T04:59:01;101202.50;;;-0.82;100.00
47054;BME280;32811;52.382;5.270;2023-01-20T05:01:27;101204.38;;;-0.78;100.00
47054;BME280;32811;52.382;5.270;2023-01-20T05:03:55;101206.84;;;-0.80;100.00
47054;BME280;32811;52.382;5.270;2023-01-20T05:06:22;101206.75;;;-0.81;100.00
47054;BME280;32811;52.382;5.270;2023-01-20T05:08:49;101195.31;;;-0.90;100.00
47054;BME280;32811;52.382;5.270;2023-01-20T05:11:16;101223.09;;;-0.76;100.00
47054;BME280;32811;52.382;5.270;2023-01-20T05:13:43;101219.84;;;-0.74;100.00
47054;BME280;32811;52.382;5.270;2023-01-20T05:16:10;101196.22;;;-0.89;100.00
47054;BME280;32811;52.382;5.270;2023-01-20T05:18:38;101220.81;;;-0.72;100.00
47054;BME280;32811;52.382;5.270;2023-01-20T05:21:05;101211.38;;;-0.74;100.00
47054;BME280;32811;52.382;5.270;2023-01-20T05:23:34;101219.06;;;-0.73;100.00
47054;BME280;32811;52.382;5.270;2023-01-20T05:26:01;101215.06;;;-0.69;100.00
47054;BME280;32811;52.382;5.270;2023-01-20T05:28:28;101197.84;;;-0.75;100.00
47054;BME280;32811;52.382;5.270;2023-01-20T05:30:55;101199.75;;;-0.71;100.00
47054;BME280;32811;52.382;5.270;2023-01-20T05:33:23;101210.16;;;-0.66;100.00
47054;BME280;32811;52.382;5.270;2023-01-20T05:35:50;101212.78;;;-0.65;100.00
47054;BME280;32811;52.382;5.270;2023-01-20T05:38:21;101207.53;;;-0.68;100.00
47054;BME280;32811;52.382;5.270;2023-01-20T05:40:47;101202.47;;;-0.68;100.00
47054;BME280;32811;52.382;5.270;2023-01-20T05:43:14;101218.16;;;-0.58;100.00
47054;BME280;32811;52.382;5.270;2023-01-20T05:45:40;101224.19;;;-0.56;100.00
47054;BME280;32811;52.382;5.270;2023-01-20T05:48:07;101218.34;;;-0.55;100.00
47054;BME280;32811;52.382;5.270;2023-01-20T05:50:34;101220.91;;;-0.55;100.00
47054;BME280;32811;52.382;5.270;2023-01-20T05:53:01;101221.50;;;-0.59;100.00
47054;BME280;32811;52.382;5.270;2023-01-20T05:55:27;101206.91;;;-0.64;100.00
47054;BME280;32811;52.382;5.270;2023-01-20T05:57:55;101228.81;;;-0.49;100.00
47054;BME280;32811;52.382;5.270;2023-01-20T06:00:22;101229.63;;;-0.50;100.00
47054;BME280;32811;52.382;5.270;2023-01-20T06:02:49;101221.06;;;-0.52;100.00
47054;BME280;32811;52.382;5.270;2023-01-20T06:05:24;101219.31;;;-0.53;100.00
47054;BME280;32811;52.382;5.270;2023-01-20T06:07:55;101209.00;;;-0.56;100.00
47054;BME280;32811;52.382;5.270;2023-01-20T06:10:23;101222.88;;;-0.50;100.00
47054;BME280;32811;52.382;5.270;2023-01-20T06:12:56;101210.44;;;-0.45;100.00
47054;BME280;32811;52.382;5.270;2023-01-20T06:15:23;101203.47;;;-0.49;100.00
47054;BME280;32811;52.382;5.270;2023-01-20T06:17:51;101200.78;;;-0.52;100.00
47054;BME280;32811;52.382;5.270;2023-01-20T06:20:18;101195.84;;;-0.49;100.00
47054;BME280;32811;52.382;5.270;2023-01-20T06:22:45;101192.09;;;-0.56;100.00
47054;BME280;32811;52.382;5.270;2023-01-20T06:25:11;101203.56;;;-0.48;100.00
47054;BME280;32811;52.382;5.270;2023-01-20T06:27:38;101196.56;;;-0.52;100.00
47054;BME280;32811;52.382;5.270;2023-01-20T06:30:06;101197.47;;;-0.51;100.00
47054;BME280;32811;52.382;5.270;2023-01-20T06:32:33;101210.38;;;-0.47;100.00
47054;BME280;32811;52.382;5.270;2023-01-20T06:34:59;101201.63;;;-0.52;100.00
47054;BME280;32811;52.382;5.270;2023-01-20T06:37:26;101198.31;;;-0.51;100.00
47054;BME280;32811;52.382;5.270;2023-01-20T06:39:53;101210.28;;;-0.48;100.00
47054;BME280;32811;52.382;5.270;2023-01-20T06:42:20;101216.31;;;-0.46;100.00
47054;BME280;32811;52.382;5.270;2023-01-20T06:44:47;101222.34;;;-0.44;100.00
47054;BME280;32811;52.382;5.270;2023-01-20T06:47:14;101226.63;;;-0.43;100.00
47054;BME280;32811;52.382;5.270;2023-01-20T06:49:41;101205.94;;;-0.51;100.00
47054;BME280;32811;52.382;5.270;2023-01-20T06:52:07;101222.97;;;-0.48;100.00
47054;BME280;32811;52.382;5.270;2023-01-20T06:54:35;101230.59;;;-0.48;100.00
47054;BME280;32811;52.382;5.270;2023-01-20T06:57:02;101219.38;;;-0.52;100.00
47054;BME280;32811;52.382;5.270;2023-01-20T06:59:29;101234.78;;;-0.49;100.00
47054;BME280;32811;52.382;5.270;2023-01-20T07:01:56;101230.84;;;-0.44;100.00
47054;BME280;32811;52.382;5.270;2023-01-20T07:04:22;101229.97;;;-0.44;100.00
47054;BME280;32811;52.382;5.270;2023-01-20T07:06:49;101234.16;;;-0.45;100.00
47054;BME280;32811;52.382;5.270;2023-01-20T07:09:16;101246.28;;;-0.39;100.00
47054;BME280;32811;52.382;5.270;2023-01-20T07:11:43;101231.44;;;-0.48;100.00
47054;BME280;32811;52.382;5.270;2023-01-20T07:14:10;101247.88;;;-0.41;100.00
47054;BME280;32811;52.382;5.270;2023-01-20T07:16:36;101244.88;;;-0.34;100.00
47054;BME280;32811;52.382;5.270;2023-01-20T07:19:04;101251.81;;;-0.31;100.00
47054;BME280;32811;52.382;5.270;2023-01-20T07:21:30;101257.03;;;-0.28;100.00
47054;BME280;32811;52.382;5.270;2023-01-20T07:24:00;101256.06;;;-0.30;100.00
47054;BME280;32811;52.382;5.270;2023-01-20T07:26:27;101245.44;;;-0.39;100.00
47054;BME280;32811;52.382;5.270;2023-01-20T07:28:56;101249.00;;;-0.36;100.00
47054;BME280;32811;52.382;5.270;2023-01-20T07:31:25;101254.34;;;-0.31;100.00
47054;BME280;32811;52.382;5.270;2023-01-20T07:33:56;101266.31;;;-0.29;100.00
47054;BME280;32811;52.382;5.270;2023-01-20T07:36:23;101274.78;;;-0.28;100.00
47054;BME280;32811;52.382;5.270;2023-01-20T07:38:51;101281.59;;;-0.27;100.00
47054;BME280;32811;52.382;5.270;2023-01-20T07:41:19;101272.00;;;-0.33;100.00
47054;BME280;32811;52.382;5.270;2023-01-20T07:43:47;101266.06;;;-0.33;100.00
47054;BME280;32811;52.382;5.270;2023-01-20T07:46:15;101279.16;;;-0.26;100.00
47054;BME280;32811;52.382;5.270;2023-01-20T07:48:43;101275.66;;;-0.28;100.00
47054;BME280;32811;52.382;5.270;2023-01-20T07:51:11;101280.72;;;-0.28;100.00
47054;BME280;32811;52.382;5.270;2023-01-20T07:53:43;101286.59;;;-0.29;100.00
47054;BME280;32811;52.382;5.270;2023-01-20T07:56:23;101301.28;;;-0.23;100.00
47054;BME280;32811;52.382;5.270;2023-01-20T07:58:52;101301.38;;;-0.22;100.00
47054;BME280;32811;52.382;5.270;2023-01-20T08:01:21;101309.75;;;-0.23;100.00
47054;BME280;32811;52.382;5.270;2023-01-20T08:03:49;101310.72;;;-0.21;100.00
47054;BME280;32811;52.382;5.270;2023-01-20T08:06:18;101291.50;;;-0.32;100.00
47054;BME280;32811;52.382;5.270;2023-01-20T08:08:52;101290.72;;;-0.31;100.00
47054;BME280;32811;52.382;5.270;2023-01-20T08:11:22;101306.34;;;-0.23;100.00
47054;BME280;32811;52.382;5.270;2023-01-20T08:13:49;101298.66;;;-0.25;100.00
47054;BME280;32811;52.382;5.270;2023-01-20T08:16:16;101292.81;;;-0.24;100.00
47054;BME280;32811;52.382;5.270;2023-01-20T08:18:44;101297.78;;;-0.25;100.00
47054;BME280;32811;52.382;5.270;2023-01-20T08:21:24;101287.31;;;-0.31;100.00
47054;BME280;32811;52.382;5.270;2023-01-20T08:23:53;101314.81;;;-0.23;100.00
47054;BME280;32811;52.382;5.270;2023-01-20T08:26:21;101316.75;;;-0.18;100.00
47054;BME280;32811;52.382;5.270;2023-01-20T08:28:51;101308.88;;;-0.23;100.00
47054;BME280;32811;52.382;5.270;2023-01-20T08:31:20;101315.00;;;-0.19;100.00
47054;BME280;32811;52.382;5.270;2023-01-20T08:33:51;101325.94;;;-0.21;100.00
47054;BME280;32811;52.382;5.270;2023-01-20T08:36:20;101332.94;;;-0.16;100.00
47054;BME280;32811;52.382;5.270;2023-01-20T08:38:48;101331.19;;;-0.17;100.00
47054;BME280;32811;52.382;5.270;2023-01-20T08:41:21;101337.84;;;-0.19;100.00
47054;BME280;32811;52.382;5.270;2023-01-20T08:43:48;101343.94;;;-0.16;100.00
47054;BME280;32811;52.382;5.270;2023-01-20T08:46:16;101344.84;;;-0.15;100.00
47054;BME280;32811;52.382;5.270;2023-01-20T08:48:44;101349.91;;;-0.15;100.00
47054;BME280;32811;52.382;5.270;2023-01-20T08:51:19;101356.81;;;-0.13;100.00
47054;BME280;32811;52.382;5.270;2023-01-20T08:53:48;101355.16;;;-0.12;100.00
47054;BME280;32811;52.382;5.270;2023-01-20T08:56:16;101340.38;;;-0.19;100.00
47054;BME280;32811;52.382;5.270;2023-01-20T08:58:43;101355.75;;;-0.16;100.00
47054;BME280;32811;52.382;5.270;2023-01-20T09:01:17;101326.47;;;-0.26;100.00
47054;BME280;32811;52.382;5.270;2023-01-20T09:03:45;101346.31;;;-0.19;100.00
47054;BME280;32811;52.382;5.270;2023-01-20T09:06:36;101359.09;;;-0.17;100.00
47054;BME280;32811;52.382;5.270;2023-01-20T09:09:04;101353.31;;;-0.15;100.00
47054;BME280;32811;52.382;5.270;2023-01-20T09:11:31;101368.81;;;-0.10;100.00
47054;BME280;32811;52.382;5.270;2023-01-20T09:13:58;101359.25;;;-0.14;100.00
47054;BME280;32811;52.382;5.270;2023-01-20T09:16:25;101352.25;;;-0.18;100.00
47054;BME280;32811;52.382;5.270;2023-01-20T09:18:52;101370.28;;;-0.14;100.00
47054;BME280;32811;52.382;5.270;2023-01-20T09:21:19;101364.19;;;-0.17;100.00
47054;BME280;32811;52.382;5.270;2023-01-20T09:23:45;101380.38;;;-0.15;100.00
47054;BME280;32811;52.382;5.270;2023-01-20T09:26:13;101340.75;;;-0.43;100.00
47054;BME280;32811;52.382;5.270;2023-01-20T09:28:59;101385.00;;;-0.23;100.00
47054;BME280;32811;52.382;5.270;2023-01-20T09:31:48;101378.88;;;-0.27;100.00
47054;BME280;32811;52.382;5.270;2023-01-20T09:34:16;101394.78;;;-0.29;100.00
47054;BME280;32811;52.382;5.270;2023-01-20T09:36:54;101400.56;;;-0.32;100.00
47054;BME280;32811;52.382;5.270;2023-01-20T09:39:23;101393.22;;;-0.42;100.00
47054;BME280;32811;52.382;5.270;2023-01-20T09:42:38;101402.41;;;-0.44;100.00
47054;BME280;32811;52.382;5.270;2023-01-20T09:45:41;101405.63;;;-0.47;100.00
47054;BME280;32811;52.382;5.270;2023-01-20T09:51:33;101393.38;;;-0.54;100.00
47054;BME280;32811;52.382;5.270;2023-01-20T09:54:28;101403.97;;;-0.46;100.00
47054;BME280;32811;52.382;5.270;2023-01-20T09:56:59;101414.88;;;-0.47;100.00
47054;BME280;32811;52.382;5.270;2023-01-20T10:02:33;101423.03;;;-0.53;100.00
47054;BME280;32811;52.382;5.270;2023-01-20T10:05:10;101423.78;;;-0.54;100.00
47054;BME280;32811;52.382;5.270;2023-01-20T10:11:04;101435.81;;;-0.51;100.00
47054;BME280;32811;52.382;5.270;2023-01-20T10:13:43;101429.75;;;-0.53;100.00
47054;BME280;32811;52.382;5.270;2023-01-20T10:16:22;101439.19;;;-0.51;100.00
47054;BME280;32811;52.382;5.270;2023-01-20T10:24:41;101430.53;;;-0.54;100.00
47054;BME280;32811;52.382;5.270;2023-01-20T10:27:08;101416.56;;;-0.63;100.00
47054;BME280;32811;52.382;5.270;2023-01-20T10:29:43;101433.44;;;-0.48;100.00
47054;BME280;32811;52.382;5.270;2023-01-20T10:32:32;101431.75;;;-0.48;100.00
47054;BME280;32811;52.382;5.270;2023-01-20T10:35:06;101425.66;;;-0.51;100.00
47054;BME280;32811;52.382;5.270;2023-01-20T10:37:36;101424.41;;;-0.43;100.00
47054;BME280;32811;52.382;5.270;2023-01-20T10:40:12;101430.66;;;-0.38;100.00
47054;BME280;32811;52.382;5.270;2023-01-20T10:42:47;101429.41;;;-0.30;100.00
47054;BME280;32811;52.382;5.270;2023-01-20T10:45:20;101430.47;;;-0.26;100.00
47054;BME280;32811;52.382;5.270;2023-01-20T10:51:10;101435.03;;;-0.21;100.00
47054;BME280;32811;52.382;5.270;2023-01-20T10:54:00;101421.91;;;-0.13;100.00
47054;BME280;32811;52.382;5.270;2023-01-20T10:56:34;101406.16;;;-0.23;100.00
47054;BME280;32811;52.382;5.270;2023-01-20T10:59:08;101416.66;;;-0.16;100.00
47054;BME280;32811;52.382;5.270;2023-01-20T11:01:38;101411.78;;;-0.13;100.00
47054;BME280;32811;52.382;5.270;2023-01-20T11:04:16;101399.16;;;-0.12;100.00
47054;BME280;32811;52.382;5.270;2023-01-20T11:06:47;101391.63;;;-0.10;100.00
47054;BME280;32811;52.382;5.270;2023-01-20T11:09:19;101398.91;;;-0.02;100.00
47054;BME280;32811;52.382;5.270;2023-01-20T11:11:49;101364.88;;;-0.20;100.00
47054;BME280;32811;52.382;5.270;2023-01-20T11:14:18;101388.13;;;0.03;100.00
47054;BME280;32811;52.382;5.270;2023-01-20T11:16:49;101411.53;;;0.13;100.00
47054;BME280;32811;52.382;5.270;2023-01-20T11:19:15;101389.50;;;-0.03;100.00
47054;BME280;32811;52.382;5.270;2023-01-20T11:21:43;101414.38;;;0.03;100.00
47054;BME280;32811;52.382;5.270;2023-01-20T11:27:09;101437.38;;;0.06;100.00
47054;BME280;32811;52.382;5.270;2023-01-20T11:29:58;101448.34;;;0.05;100.00
47054;BME280;32811;52.382;5.270;2023-01-20T11:32:36;101438.94;;;0.04;100.00
47054;BME280;32811;52.382;5.270;2023-01-20T11:35:22;101434.31;;;-0.03;100.00
47054;BME280;32811;52.382;5.270;2023-01-20T11:37:50;101444.13;;;0.06;100.00
47054;BME280;32811;52.382;5.270;2023-01-20T11:40:20;101439.75;;;0.03;100.00
47054;BME280;32811;52.382;5.270;2023-01-20T11:42:49;101433.00;;;0.04;100.00
47054;BME280;32811;52.382;5.270;2023-01-20T11:45:31;101429.97;;;0.09;100.00
47054;BME280;32811;52.382;5.270;2023-01-20T11:50:54;101427.13;;;0.19;100.00
47054;BME280;32811;52.382;5.270;2023-01-20T11:53:28;101427.75;;;0.15;100.00
47054;BME280;32811;52.382;5.270;2023-01-20T11:56:03;101433.25;;;0.23;100.00
47054;BME280;32811;52.382;5.270;2023-01-20T11:58:45;101419.69;;;0.23;100.00
47054;BME280;32811;52.382;5.270;2023-01-20T12:01:25;101429.41;;;0.30;100.00
47054;BME280;32811;52.382;5.270;2023-01-20T12:06:58;101421.84;;;0.31;100.00
47054;BME280;32811;52.382;5.270;2023-01-20T12:09:40;101437.06;;;0.31;100.00
47054;BME280;32811;52.382;5.270;2023-01-20T12:20:26;101456.06;;;0.38;100.00
47054;BME280;32811;52.382;5.270;2023-01-20T12:25:45;101455.13;;;0.36;100.00
47054;BME280;32811;52.382;5.270;2023-01-20T12:31:06;101450.47;;;0.29;100.00
47054;BME280;32811;52.382;5.270;2023-01-20T12:33:48;101463.78;;;0.39;100.00
47054;BME280;32811;52.382;5.270;2023-01-20T12:36:47;101469.72;;;0.40;100.00
47054;BME280;32811;52.382;5.270;2023-01-20T12:49:56;101477.88;;;0.49;100.00
47054;BME280;32811;52.382;5.270;2023-01-20T12:55:21;101477.41;;;0.56;100.00
47054;BME280;32811;52.382;5.270;2023-01-20T13:01:22;101486.50;;;0.68;100.00
47054;BME280;32811;52.382;5.270;2023-01-20T13:04:01;101482.63;;;0.74;100.00
47054;BME280;32811;52.382;5.270;2023-01-20T13:15:38;101499.38;;;0.71;100.00
47054;BME280;32811;52.382;5.270;2023-01-20T13:20:45;101503.59;;;0.55;100.00
47054;BME280;32811;52.382;5.270;2023-01-20T13:23:21;101501.75;;;0.53;100.00
47054;BME280;32811;52.382;5.270;2023-01-20T13:25:50;101518.69;;;0.52;100.00
47054;BME280;32811;52.382;5.270;2023-01-20T13:28:23;101523.75;;;0.52;100.00
47054;BME280;32811;52.382;5.270;2023-01-20T13:30:53;101525.34;;;0.50;100.00
47054;BME280;32811;52.382;5.270;2023-01-20T13:38:38;101531.88;;;0.47;100.00
47054;BME280;32811;52.382;5.270;2023-01-20T13:41:05;101539.09;;;0.54;100.00
47054;BME280;32811;52.382;5.270;2023-01-20T13:43:34;101544.22;;;0.55;100.00
47054;BME280;32811;52.382;5.270;2023-01-20T13:48:31;101536.47;;;0.52;100.00
47054;BME280;32811;52.382;5.270;2023-01-20T13:53:44;101552.47;;;0.51;100.00
47054;BME280;32811;52.382;5.270;2023-01-20T13:56:31;101552.31;;;0.48;100.00
47054;BME280;32811;52.382;5.270;2023-01-20T13:58:59;101553.38;;;0.52;100.00
47054;BME280;32811;52.382;5.270;2023-01-20T14:01:27;101568.94;;;0.58;100.00
47054;BME280;32811;52.382;5.270;2023-01-20T14:04:16;101573.06;;;0.56;100.00
47054;BME280;32811;52.382;5.270;2023-01-20T14:06:47;101588.31;;;0.56;100.00
47054;BME280;32811;52.382;5.270;2023-01-20T14:09:24;101588.22;;;0.54;100.00
47054;BME280;32811;52.382;5.270;2023-01-20T14:11:54;101590.75;;;0.54;100.00
47054;BME280;32811;52.382;5.270;2023-01-20T14:14:24;101608.91;;;0.60;100.00
47054;BME280;32811;52.382;5.270;2023-01-20T14:16:51;101576.13;;;0.35;100.00
47054;BME280;32811;52.382;5.270;2023-01-20T14:19:33;101617.84;;;0.54;100.00
47054;BME280;32811;52.382;5.270;2023-01-20T14:22:02;101621.41;;;0.57;100.00
47054;BME280;32811;52.382;5.270;2023-01-20T14:24:35;101617.72;;;0.52;100.00
47054;BME280;32811;52.382;5.270;2023-01-20T14:29:33;101634.81;;;0.55;100.00
47054;BME280;32811;52.382;5.270;2023-01-20T14:32:00;101641.56;;;0.54;100.00
47054;BME280;32811;52.382;5.270;2023-01-20T14:36:58;101634.78;;;0.40;100.00
47054;BME280;32811;52.382;5.270;2023-01-20T14:39:28;101668.09;;;0.59;100.00
47054;BME280;32811;52.382;5.270;2023-01-20T14:41:59;101667.94;;;0.56;100.00
47054;BME280;32811;52.382;5.270;2023-01-20T14:44:29;101675.88;;;0.62;100.00
47054;BME280;32811;52.382;5.270;2023-01-20T14:47:00;101667.22;;;0.59;100.00
47054;BME280;32811;52.382;5.270;2023-01-20T14:49:32;101669.88;;;0.60;100.00
47054;BME280;32811;52.382;5.270;2023-01-20T14:52:00;101693.66;;;0.62;100.00
47054;BME280;32811;52.382;5.270;2023-01-20T14:54:41;101693.66;;;0.62;100.00